sensor_id;sensor_type;location;lat;lon;timestamp;P1;durP1;ratioP1;P2;durP2;ratioP2
75689;SDS011;64303;53.118;9.044;2023-08-08T00:00:49;4.82;;;4.35;;
75689;SDS011;64303;53.118;9.044;2023-08-08T00:03:32;4.80;;;2.97;;
75689;SDS011;64303;53.118;9.044;2023-08-08T00:06:00;8.00;;;3.78;;
75689;SDS011;64303;53.118;9.044;2023-08-08T00:08:26;6.90;;;6.30;;
75689;SDS011;64303;53.118;9.044;2023-08-08T00:10:53;6.28;;;5.22;;
75689;SDS011;64303;53.118;9.044;2023-08-08T00:13:19;6.25;;;5.75;;
75689;SDS011;64303;53.118;9.044;2023-08-08T00:15:48;6.03;;;5.45;;
75689;SDS011;64303;53.118;9.044;2023-08-08T00:18:14;6.07;;;5.10;;
75689;SDS011;64303;53.118;9.044;2023-08-08T00:20:41;5.50;;;4.53;;
75689;SDS011;64303;53.118;9.044;2023-08-08T00:23:08;8.88;;;8.05;;
75689;SDS011;64303;53.118;9.044;2023-08-08T00:25:35;6.15;;;5.60;;
75689;SDS011;64303;53.118;9.044;2023-08-08T00:28:02;5.78;;;5.28;;
75689;SDS011;64303;53.118;9.044;2023-08-08T00:30:30;5.38;;;4.28;;
75689;SDS011;64303;53.118;9.044;2023-08-08T00:32:57;4.72;;;3.25;;
75689;SDS011;64303;53.118;9.044;2023-08-08T00:35:24;6.22;;;5.72;;
75689;SDS011;64303;53.118;9.044;2023-08-08T00:37:50;6.97;;;5.53;;
75689;SDS011;64303;53.118;9.044;2023-08-08T00:40:18;4.55;;;3.55;;
75689;SDS011;64303;53.118;9.044;2023-08-08T00:42:44;6.20;;;4.15;;
75689;SDS011;64303;53.118;9.044;2023-08-08T00:45:11;5.75;;;4.72;;
75689;SDS011;64303;53.118;9.044;2023-08-08T00:47:39;4.65;;;3.67;;
75689;SDS011;64303;53.118;9.044;2023-08-08T00:50:07;6.32;;;4.45;;
75689;SDS011;64303;53.118;9.044;2023-08-08T00:52:35;6.38;;;4.00;;
75689;SDS011;64303;53.118;9.044;2023-08-08T00:55:02;6.68;;;6.15;;
75689;SDS011;64303;53.118;9.044;2023-08-08T00:57:30;6.05;;;5.55;;
75689;SDS011;64303;53.118;9.044;2023-08-08T00:59:56;11.35;;;4.68;;
75689;SDS011;64303;53.118;9.044;2023-08-08T01:02:23;4.53;;;2.95;;
75689;SDS011;64303;53.118;9.044;2023-08-08T01:04:51;6.35;;;5.75;;
75689;SDS011;64303;53.118;9.044;2023-08-08T01:09:48;6.95;;;6.35;;
75689;SDS011;64303;53.118;9.044;2023-08-08T01:12:19;6.53;;;5.53;;
75689;SDS011;64303;53.118;9.044;2023-08-08T01:14:46;4.20;;;3.80;;
75689;SDS011;64303;53.118;9.044;2023-08-08T01:17:12;5.75;;;5.20;;
75689;SDS011;64303;53.118;9.044;2023-08-08T01:19:40;7.03;;;5.43;;
75689;SDS011;64303;53.118;9.044;2023-08-08T01:22:09;5.75;;;5.07;;
75689;SDS011;64303;53.118;9.044;2023-08-08T01:24:40;6.25;;;3.50;;
75689;SDS011;64303;53.118;9.044;2023-08-08T01:27:06;4.22;;;2.50;;
75689;SDS011;64303;53.118;9.044;2023-08-08T01:29:34;7.32;;;6.32;;
75689;SDS011;64303;53.118;9.044;2023-08-08T01:32:00;5.50;;;5.00;;
75689;SDS011;64303;53.118;9.044;2023-08-08T01:34:27;7.68;;;5.38;;
75689;SDS011;64303;53.118;9.044;2023-08-08T01:36:54;9.50;;;5.03;;
75689;SDS011;64303;53.118;9.044;2023-08-08T01:39:25;7.88;;;7.20;;
75689;SDS011;64303;53.118;9.044;2023-08-08T01:41:54;6.78;;;5.53;;
75689;SDS011;64303;53.118;9.044;2023-08-08T01:44:21;7.22;;;6.00;;
75689;SDS011;64303;53.118;9.044;2023-08-08T01:46:48;8.00;;;7.05;;
75689;SDS011;64303;53.118;9.044;2023-08-08T01:49:15;6.50;;;5.85;;
75689;SDS011;64303;53.118;9.044;2023-08-08T01:51:41;6.70;;;5.57;;
75689;SDS011;64303;53.118;9.044;2023-08-08T01:54:08;11.73;;;3.05;;
75689;SDS011;64303;53.118;9.044;2023-08-08T01:56:35;6.63;;;6.07;;
75689;SDS011;64303;53.118;9.044;2023-08-08T01:59:03;5.35;;;4.40;;
75689;SDS011;64303;53.118;9.044;2023-08-08T02:01:30;9.38;;;5.68;;
75689;SDS011;64303;53.118;9.044;2023-08-08T02:03:57;5.47;;;4.95;;
75689;SDS011;64303;53.118;9.044;2023-08-08T02:06:23;5.32;;;4.78;;
75689;SDS011;64303;53.118;9.044;2023-08-08T02:08:50;5.72;;;5.13;;
75689;SDS011;64303;53.118;9.044;2023-08-08T02:11:16;4.40;;;3.92;;
75689;SDS011;64303;53.118;9.044;2023-08-08T02:13:43;5.45;;;3.45;;
75689;SDS011;64303;53.118;9.044;2023-08-08T02:16:11;4.07;;;3.50;;
75689;SDS011;64303;53.118;9.044;2023-08-08T02:18:38;8.45;;;3.88;;
75689;SDS011;64303;53.118;9.044;2023-08-08T02:21:06;6.70;;;5.00;;
75689;SDS011;64303;53.118;9.044;2023-08-08T02:23:33;8.07;;;7.32;;
75689;SDS011;64303;53.118;9.044;2023-08-08T02:25:59;7.63;;;4.88;;
75689;SDS011;64303;53.118;9.044;2023-08-08T02:28:27;6.05;;;5.45;;
75689;SDS011;64303;53.118;9.044;2023-08-08T02:30:53;8.18;;;5.85;;
75689;SDS011;64303;53.118;9.044;2023-08-08T02:33:22;7.80;;;7.10;;
75689;SDS011;64303;53.118;9.044;2023-08-08T02:35:49;6.85;;;5.85;;
75689;SDS011;64303;53.118;9.044;2023-08-08T02:38:16;7.18;;;6.55;;
75689;SDS011;64303;53.118;9.044;2023-08-08T02:40:42;7.20;;;6.57;;
75689;SDS011;64303;53.118;9.044;2023-08-08T02:43:09;7.43;;;6.05;;
75689;SDS011;64303;53.118;9.044;2023-08-08T02:45:36;6.03;;;5.43;;
75689;SDS011;64303;53.118;9.044;2023-08-08T02:48:04;8.27;;;6.15;;
75689;SDS011;64303;53.118;9.044;2023-08-08T02:50:33;6.47;;;5.68;;
75689;SDS011;64303;53.118;9.044;2023-08-08T02:53:00;7.82;;;6.60;;
75689;SDS011;64303;53.118;9.044;2023-08-08T02:55:33;4.90;;;3.97;;
75689;SDS011;64303;53.118;9.044;2023-08-08T02:57:59;6.32;;;5.70;;
75689;SDS011;64303;53.118;9.044;2023-08-08T03:00:26;5.22;;;3.28;;
75689;SDS011;64303;53.118;9.044;2023-08-08T03:02:53;8.93;;;5.88;;
75689;SDS011;64303;53.118;9.044;2023-08-08T03:05:20;6.25;;;4.22;;
75689;SDS011;64303;53.118;9.044;2023-08-08T03:07:49;8.20;;;4.07;;
75689;SDS011;64303;53.118;9.044;2023-08-08T03:10:17;7.72;;;6.90;;
75689;SDS011;64303;53.118;9.044;2023-08-08T03:12:44;6.63;;;5.43;;
75689;SDS011;64303;53.118;9.044;2023-08-08T03:15:10;6.97;;;6.38;;
75689;SDS011;64303;53.118;9.044;2023-08-08T03:17:37;24.42;;;7.57;;
75689;SDS011;64303;53.118;9.044;2023-08-08T03:20:05;6.38;;;5.68;;
75689;SDS011;64303;53.118;9.044;2023-08-08T03:22:33;5.78;;;5.18;;
75689;SDS011;64303;53.118;9.044;2023-08-08T03:25:01;8.20;;;4.45;;
75689;SDS011;64303;53.118;9.044;2023-08-08T03:27:29;6.53;;;4.75;;
75689;SDS011;64303;53.118;9.044;2023-08-08T03:29:56;7.28;;;5.65;;
75689;SDS011;64303;53.118;9.044;2023-08-08T03:32:23;7.03;;;6.20;;
75689;SDS011;64303;53.118;9.044;2023-08-08T03:34:49;8.13;;;7.32;;
75689;SDS011;64303;53.118;9.044;2023-08-08T03:37:16;6.95;;;3.67;;
75689;SDS011;64303;53.118;9.044;2023-08-08T03:39:43;6.40;;;3.55;;
75689;SDS011;64303;53.118;9.044;2023-08-08T03:42:11;7.28;;;6.40;;
75689;SDS011;64303;53.118;9.044;2023-08-08T03:47:04;8.65;;;4.55;;
75689;SDS011;64303;53.118;9.044;2023-08-08T03:49:31;8.88;;;8.07;;
75689;SDS011;64303;53.118;9.044;2023-08-08T03:51:59;8.38;;;5.25;;
75689;SDS011;64303;53.118;9.044;2023-08-08T03:54:26;5.10;;;4.50;;
75689;SDS011;64303;53.118;9.044;2023-08-08T03:56:53;5.35;;;3.85;;
75689;SDS011;64303;53.118;9.044;2023-08-08T03:59:22;7.88;;;5.57;;
75689;SDS011;64303;53.118;9.044;2023-08-08T04:01:48;11.02;;;6.60;;
75689;SDS011;64303;53.118;9.044;2023-08-08T04:04:16;4.95;;;4.47;;
75689;SDS011;64303;53.118;9.044;2023-08-08T04:06:42;5.90;;;4.03;;
75689;SDS011;64303;53.118;9.044;2023-08-08T04:09:09;8.85;;;5.70;;
75689;SDS011;64303;53.118;9.044;2023-08-08T04:11:36;6.50;;;5.65;;
75689;SDS011;64303;53.118;9.044;2023-08-08T04:14:03;8.77;;;4.70;;
75689;SDS011;64303;53.118;9.044;2023-08-08T04:16:31;7.95;;;6.28;;
75689;SDS011;64303;53.118;9.044;2023-08-08T04:21:24;5.75;;;4.20;;
75689;SDS011;64303;53.118;9.044;2023-08-08T04:23:53;7.78;;;4.55;;
75689;SDS011;64303;53.118;9.044;2023-08-08T04:26:20;7.50;;;6.80;;
75689;SDS011;64303;53.118;9.044;2023-08-08T04:28:47;7.72;;;7.03;;
75689;SDS011;64303;53.118;9.044;2023-08-08T04:31:14;8.48;;;7.70;;
75689;SDS011;64303;53.118;9.044;2023-08-08T04:33:42;5.25;;;4.22;;
75689;SDS011;64303;53.118;9.044;2023-08-08T04:36:08;7.38;;;6.70;;
75689;SDS011;64303;53.118;9.044;2023-08-08T04:38:35;11.00;;;6.53;;
75689;SDS011;64303;53.118;9.044;2023-08-08T04:41:02;7.80;;;6.75;;
75689;SDS011;64303;53.118;9.044;2023-08-08T04:43:29;7.03;;;6.38;;
75689;SDS011;64303;53.118;9.044;2023-08-08T04:45:56;6.47;;;4.50;;
75689;SDS011;64303;53.118;9.044;2023-08-08T04:48:22;9.00;;;6.65;;
75689;SDS011;64303;53.118;9.044;2023-08-08T04:50:51;7.10;;;4.78;;
75689;SDS011;64303;53.118;9.044;2023-08-08T04:55:44;7.32;;;4.82;;
75689;SDS011;64303;53.118;9.044;2023-08-08T04:58:10;6.47;;;5.35;;
75689;SDS011;64303;53.118;9.044;2023-08-08T05:00:37;7.57;;;6.88;;
75689;SDS011;64303;53.118;9.044;2023-08-08T05:03:04;7.30;;;6.10;;
75689;SDS011;64303;53.118;9.044;2023-08-08T05:05:30;6.35;;;4.10;;
75689;SDS011;64303;53.118;9.044;2023-08-08T05:07:59;7.18;;;6.47;;
75689;SDS011;64303;53.118;9.044;2023-08-08T05:10:26;6.63;;;4.60;;
75689;SDS011;64303;53.118;9.044;2023-08-08T05:12:52;6.57;;;5.97;;
75689;SDS011;64303;53.118;9.044;2023-08-08T05:15:19;7.43;;;4.82;;
75689;SDS011;64303;53.118;9.044;2023-08-08T05:17:45;8.05;;;5.63;;
75689;SDS011;64303;53.118;9.044;2023-08-08T05:20:12;8.35;;;6.38;;
75689;SDS011;64303;53.118;9.044;2023-08-08T05:22:39;5.72;;;4.20;;
75689;SDS011;64303;53.118;9.044;2023-08-08T05:25:07;5.75;;;4.50;;
75689;SDS011;64303;53.118;9.044;2023-08-08T05:27:34;8.45;;;4.40;;
75689;SDS011;64303;53.118;9.044;2023-08-08T05:30:01;8.10;;;3.50;;
75689;SDS011;64303;53.118;9.044;2023-08-08T05:32:28;7.95;;;7.13;;
75689;SDS011;64303;53.118;9.044;2023-08-08T05:34:55;7.70;;;6.55;;
75689;SDS011;64303;53.118;9.044;2023-08-08T05:37:23;6.82;;;6.20;;
75689;SDS011;64303;53.118;9.044;2023-08-08T05:39:49;8.25;;;7.38;;
75689;SDS011;64303;53.118;9.044;2023-08-08T05:44:45;7.72;;;5.95;;
75689;SDS011;64303;53.118;9.044;2023-08-08T05:47:12;6.85;;;5.05;;
75689;SDS011;64303;53.118;9.044;2023-08-08T05:49:39;9.82;;;6.05;;
75689;SDS011;64303;53.118;9.044;2023-08-08T05:52:07;9.55;;;5.90;;
75689;SDS011;64303;53.118;9.044;2023-08-08T05:54:34;9.57;;;3.33;;
75689;SDS011;64303;53.118;9.044;2023-08-08T05:57:01;6.43;;;5.85;;
75689;SDS011;64303;53.118;9.044;2023-08-08T05:59:30;6.38;;;5.18;;
75689;SDS011;64303;53.118;9.044;2023-08-08T06:01:56;8.77;;;4.93;;
75689;SDS011;64303;53.118;9.044;2023-08-08T06:04:24;9.38;;;5.68;;
75689;SDS011;64303;53.118;9.044;2023-08-08T06:06:50;9.38;;;6.10;;
75689;SDS011;64303;53.118;9.044;2023-08-08T06:09:17;8.75;;;6.57;;
75689;SDS011;64303;53.118;9.044;2023-08-08T06:11:44;9.73;;;5.72;;
75689;SDS011;64303;53.118;9.044;2023-08-08T06:14:11;9.52;;;4.10;;
75689;SDS011;64303;53.118;9.044;2023-08-08T06:16:39;7.20;;;5.53;;
75689;SDS011;64303;53.118;9.044;2023-08-08T06:19:06;6.13;;;5.40;;
75689;SDS011;64303;53.118;9.044;2023-08-08T06:21:33;5.22;;;4.60;;
75689;SDS011;64303;53.118;9.044;2023-08-08T06:24:00;6.45;;;5.55;;
75689;SDS011;64303;53.118;9.044;2023-08-08T06:26:27;5.03;;;4.47;;
75689;SDS011;64303;53.118;9.044;2023-08-08T06:28:54;6.57;;;3.25;;
75689;SDS011;64303;53.118;9.044;2023-08-08T06:31:22;6.57;;;3.15;;
75689;SDS011;64303;53.118;9.044;2023-08-08T06:33:50;6.63;;;3.92;;
75689;SDS011;64303;53.118;9.044;2023-08-08T06:36:16;6.70;;;6.20;;
75689;SDS011;64303;53.118;9.044;2023-08-08T06:38:43;6.10;;;3.35;;
75689;SDS011;64303;53.118;9.044;2023-08-08T06:41:10;5.50;;;3.17;;
75689;SDS011;64303;53.118;9.044;2023-08-08T06:43:37;8.00;;;5.30;;
75689;SDS011;64303;53.118;9.044;2023-08-08T06:46:03;6.55;;;5.82;;
75689;SDS011;64303;53.118;9.044;2023-08-08T06:48:30;6.53;;;5.88;;
75689;SDS011;64303;53.118;9.044;2023-08-08T06:50:58;5.10;;;3.40;;
75689;SDS011;64303;53.118;9.044;2023-08-08T06:53:25;3.88;;;3.47;;
75689;SDS011;64303;53.118;9.044;2023-08-08T06:55:51;7.40;;;6.90;;
75689;SDS011;64303;53.118;9.044;2023-08-08T06:58:18;5.60;;;3.38;;
75689;SDS011;64303;53.118;9.044;2023-08-08T07:00:45;6.32;;;5.72;;
75689;SDS011;64303;53.118;9.044;2023-08-08T07:03:12;7.90;;;7.10;;
75689;SDS011;64303;53.118;9.044;2023-08-08T07:05:38;7.82;;;3.33;;
75689;SDS011;64303;53.118;9.044;2023-08-08T07:08:07;6.10;;;4.47;;
75689;SDS011;64303;53.118;9.044;2023-08-08T07:10:34;4.82;;;3.20;;
75689;SDS011;64303;53.118;9.044;2023-08-08T07:13:01;4.00;;;2.65;;
75689;SDS011;64303;53.118;9.044;2023-08-08T07:15:27;3.78;;;2.67;;
75689;SDS011;64303;53.118;9.044;2023-08-08T07:17:54;4.55;;;3.40;;
75689;SDS011;64303;53.118;9.044;2023-08-08T07:20:20;4.88;;;2.53;;
75689;SDS011;64303;53.118;9.044;2023-08-08T07:22:48;3.90;;;1.63;;
75689;SDS011;64303;53.118;9.044;2023-08-08T07:25:16;4.05;;;2.20;;
75689;SDS011;64303;53.118;9.044;2023-08-08T07:27:43;5.10;;;2.08;;
75689;SDS011;64303;53.118;9.044;2023-08-08T07:30:10;4.47;;;2.63;;
75689;SDS011;64303;53.118;9.044;2023-08-08T07:32:37;3.65;;;1.27;;
75689;SDS011;64303;53.118;9.044;2023-08-08T07:35:04;3.55;;;3.03;;
75689;SDS011;64303;53.118;9.044;2023-08-08T07:37:33;5.18;;;2.33;;
75689;SDS011;64303;53.118;9.044;2023-08-08T07:40:01;3.05;;;2.35;;
75689;SDS011;64303;53.118;9.044;2023-08-08T07:42:30;4.32;;;1.85;;
75689;SDS011;64303;53.118;9.044;2023-08-08T07:44:57;6.20;;;2.95;;
75689;SDS011;64303;53.118;9.044;2023-08-08T07:47:24;3.05;;;2.40;;
75689;SDS011;64303;53.118;9.044;2023-08-08T07:49:50;3.97;;;1.60;;
75689;SDS011;64303;53.118;9.044;2023-08-08T07:52:17;5.80;;;2.03;;
75689;SDS011;64303;53.118;9.044;2023-08-08T07:54:44;6.93;;;2.75;;
75689;SDS011;64303;53.118;9.044;2023-08-08T07:57:11;5.43;;;4.93;;
75689;SDS011;64303;53.118;9.044;2023-08-08T07:59:39;4.18;;;2.42;;
75689;SDS011;64303;53.118;9.044;2023-08-08T08:02:05;4.50;;;2.83;;
75689;SDS011;64303;53.118;9.044;2023-08-08T08:04:33;3.88;;;2.95;;
75689;SDS011;64303;53.118;9.044;2023-08-08T08:06:59;3.33;;;1.83;;
75689;SDS011;64303;53.118;9.044;2023-08-08T08:09:26;4.50;;;4.10;;
75689;SDS011;64303;53.118;9.044;2023-08-08T08:11:53;3.70;;;3.38;;
75689;SDS011;64303;53.118;9.044;2023-08-08T08:14:20;5.45;;;3.38;;
75689;SDS011;64303;53.118;9.044;2023-08-08T08:16:48;6.35;;;5.72;;
75689;SDS011;64303;53.118;9.044;2023-08-08T08:19:15;6.32;;;5.47;;
75689;SDS011;64303;53.118;9.044;2023-08-08T08:21:42;5.28;;;4.75;;
75689;SDS011;64303;53.118;9.044;2023-08-08T08:24:08;7.03;;;5.05;;
75689;SDS011;64303;53.118;9.044;2023-08-08T08:26:35;7.90;;;5.68;;
75689;SDS011;64303;53.118;9.044;2023-08-08T08:29:02;4.00;;;2.95;;
75689;SDS011;64303;53.118;9.044;2023-08-08T08:31:29;8.18;;;2.65;;
75689;SDS011;64303;53.118;9.044;2023-08-08T08:33:56;6.05;;;2.88;;
75689;SDS011;64303;53.118;9.044;2023-08-08T08:36:23;4.95;;;4.28;;
75689;SDS011;64303;53.118;9.044;2023-08-08T08:38:51;4.85;;;2.20;;
75689;SDS011;64303;53.118;9.044;2023-08-08T08:41:18;4.22;;;1.98;;
75689;SDS011;64303;53.118;9.044;2023-08-08T08:43:46;6.20;;;3.33;;
75689;SDS011;64303;53.118;9.044;2023-08-08T08:46:15;3.83;;;2.15;;
75689;SDS011;64303;53.118;9.044;2023-08-08T08:48:46;4.18;;;2.88;;
75689;SDS011;64303;53.118;9.044;2023-08-08T08:51:15;3.10;;;1.80;;
75689;SDS011;64303;53.118;9.044;2023-08-08T08:53:41;3.83;;;2.30;;
75689;SDS011;64303;53.118;9.044;2023-08-08T08:56:12;3.47;;;2.67;;
75689;SDS011;64303;53.118;9.044;2023-08-08T08:58:39;4.10;;;3.08;;
75689;SDS011;64303;53.118;9.044;2023-08-08T09:01:06;5.28;;;2.55;;
75689;SDS011;64303;53.118;9.044;2023-08-08T09:03:33;3.92;;;3.22;;
75689;SDS011;64303;53.118;9.044;2023-08-08T09:06:01;3.03;;;1.92;;
75689;SDS011;64303;53.118;9.044;2023-08-08T09:10:56;5.20;;;2.22;;
75689;SDS011;64303;53.118;9.044;2023-08-08T09:13:23;3.97;;;2.08;;
75689;SDS011;64303;53.118;9.044;2023-08-08T09:15:52;5.60;;;2.45;;
75689;SDS011;64303;53.118;9.044;2023-08-08T09:18:19;6.28;;;3.75;;
75689;SDS011;64303;53.118;9.044;2023-08-08T09:20:46;3.30;;;2.38;;
75689;SDS011;64303;53.118;9.044;2023-08-08T09:23:13;3.25;;;2.10;;
75689;SDS011;64303;53.118;9.044;2023-08-08T09:25:41;3.92;;;2.45;;
75689;SDS011;64303;53.118;9.044;2023-08-08T09:28:08;4.47;;;2.33;;
75689;SDS011;64303;53.118;9.044;2023-08-08T09:30:35;3.17;;;2.75;;
75689;SDS011;64303;53.118;9.044;2023-08-08T09:33:01;3.60;;;1.95;;
75689;SDS011;64303;53.118;9.044;2023-08-08T09:35:28;3.53;;;1.52;;
75689;SDS011;64303;53.118;9.044;2023-08-08T09:37:55;3.33;;;3.03;;
75689;SDS011;64303;53.118;9.044;2023-08-08T09:40:22;3.85;;;1.55;;
75689;SDS011;64303;53.118;9.044;2023-08-08T09:42:52;3.33;;;2.47;;
75689;SDS011;64303;53.118;9.044;2023-08-08T09:45:19;2.83;;;2.63;;
75689;SDS011;64303;53.118;9.044;2023-08-08T09:47:46;4.07;;;1.70;;
75689;SDS011;64303;53.118;9.044;2023-08-08T09:50:13;4.18;;;1.42;;
75689;SDS011;64303;53.118;9.044;2023-08-08T09:52:39;2.00;;;1.63;;
75689;SDS011;64303;53.118;9.044;2023-08-08T09:55:06;3.53;;;2.30;;
75689;SDS011;64303;53.118;9.044;2023-08-08T09:57:33;4.07;;;2.28;;
75689;SDS011;64303;53.118;9.044;2023-08-08T10:00:02;3.30;;;2.20;;
75689;SDS011;64303;53.118;9.044;2023-08-08T10:02:31;2.92;;;2.42;;
75689;SDS011;64303;53.118;9.044;2023-08-08T10:04:59;2.42;;;1.98;;
75689;SDS011;64303;53.118;9.044;2023-08-08T10:07:26;3.15;;;2.17;;
75689;SDS011;64303;53.118;9.044;2023-08-08T10:09:53;4.13;;;1.70;;
75689;SDS011;64303;53.118;9.044;2023-08-08T10:12:19;3.88;;;3.58;;
75689;SDS011;64303;53.118;9.044;2023-08-08T10:14:46;3.40;;;1.88;;
75689;SDS011;64303;53.118;9.044;2023-08-08T10:17:15;3.70;;;3.08;;
75689;SDS011;64303;53.118;9.044;2023-08-08T10:19:49;3.97;;;2.75;;
75689;SDS011;64303;53.118;9.044;2023-08-08T10:22:19;2.85;;;2.25;;
75689;SDS011;64303;53.118;9.044;2023-08-08T10:24:47;4.07;;;2.20;;
75689;SDS011;64303;53.118;9.044;2023-08-08T10:27:14;3.33;;;2.72;;
75689;SDS011;64303;53.118;9.044;2023-08-08T10:29:41;4.90;;;3.03;;
75689;SDS011;64303;53.118;9.044;2023-08-08T10:32:21;4.32;;;2.67;;
75689;SDS011;64303;53.118;9.044;2023-08-08T10:34:50;3.13;;;2.20;;
75689;SDS011;64303;53.118;9.044;2023-08-08T10:37:22;2.20;;;1.73;;
75689;SDS011;64303;53.118;9.044;2023-08-08T10:39:50;3.83;;;2.35;;
75689;SDS011;64303;53.118;9.044;2023-08-08T10:42:18;3.72;;;2.45;;
75689;SDS011;64303;53.118;9.044;2023-08-08T10:44:50;3.55;;;2.55;;
75689;SDS011;64303;53.118;9.044;2023-08-08T10:47:20;4.13;;;2.25;;
75689;SDS011;64303;53.118;9.044;2023-08-08T10:49:56;3.47;;;2.80;;
75689;SDS011;64303;53.118;9.044;2023-08-08T10:52:23;4.78;;;3.03;;
75689;SDS011;64303;53.118;9.044;2023-08-08T10:54:51;2.83;;;1.95;;
75689;SDS011;64303;53.118;9.044;2023-08-08T10:57:19;4.63;;;2.17;;
75689;SDS011;64303;53.118;9.044;2023-08-08T10:59:47;4.05;;;2.45;;
75689;SDS011;64303;53.118;9.044;2023-08-08T11:02:14;2.85;;;2.10;;
75689;SDS011;64303;53.118;9.044;2023-08-08T11:04:42;3.15;;;1.45;;
75689;SDS011;64303;53.118;9.044;2023-08-08T11:07:08;3.40;;;2.25;;
75689;SDS011;64303;53.118;9.044;2023-08-08T11:09:35;3.28;;;1.85;;
75689;SDS011;64303;53.118;9.044;2023-08-08T11:12:02;3.80;;;2.40;;
75689;SDS011;64303;53.118;9.044;2023-08-08T11:14:30;2.00;;;1.45;;
75689;SDS011;64303;53.118;9.044;2023-08-08T11:16:56;3.15;;;2.42;;
75689;SDS011;64303;53.118;9.044;2023-08-08T11:19:23;3.45;;;2.10;;
75689;SDS011;64303;53.118;9.044;2023-08-08T11:21:51;4.05;;;2.38;;
75689;SDS011;64303;53.118;9.044;2023-08-08T11:24:18;3.13;;;1.42;;
75689;SDS011;64303;53.118;9.044;2023-08-08T11:26:45;3.60;;;2.53;;
75689;SDS011;64303;53.118;9.044;2023-08-08T11:29:12;2.13;;;1.85;;
75689;SDS011;64303;53.118;9.044;2023-08-08T11:31:39;4.07;;;1.77;;
75689;SDS011;64303;53.118;9.044;2023-08-08T11:34:06;3.90;;;2.75;;
75689;SDS011;64303;53.118;9.044;2023-08-08T11:36:35;3.35;;;2.92;;
75689;SDS011;64303;53.118;9.044;2023-08-08T11:39:04;2.55;;;2.30;;
75689;SDS011;64303;53.118;9.044;2023-08-08T11:41:33;2.30;;;1.58;;
75689;SDS011;64303;53.118;9.044;2023-08-08T11:44:01;3.55;;;3.33;;
75689;SDS011;64303;53.118;9.044;2023-08-08T11:46:28;3.25;;;3.00;;
75689;SDS011;64303;53.118;9.044;2023-08-08T11:49:01;3.10;;;1.90;;
75689;SDS011;64303;53.118;9.044;2023-08-08T11:51:28;2.83;;;2.42;;
75689;SDS011;64303;53.118;9.044;2023-08-08T11:53:55;4.07;;;2.35;;
75689;SDS011;64303;53.118;9.044;2023-08-08T11:56:23;2.53;;;2.10;;
75689;SDS011;64303;53.118;9.044;2023-08-08T11:58:50;2.83;;;2.38;;
75689;SDS011;64303;53.118;9.044;2023-08-08T12:01:19;2.90;;;2.00;;
75689;SDS011;64303;53.118;9.044;2023-08-08T12:03:46;4.80;;;1.55;;
75689;SDS011;64303;53.118;9.044;2023-08-08T12:06:13;3.35;;;1.95;;
75689;SDS011;64303;53.118;9.044;2023-08-08T12:08:40;4.47;;;1.88;;
75689;SDS011;64303;53.118;9.044;2023-08-08T12:11:09;4.00;;;3.47;;
75689;SDS011;64303;53.118;9.044;2023-08-08T12:13:38;3.35;;;2.28;;
75689;SDS011;64303;53.118;9.044;2023-08-08T12:16:05;3.25;;;2.83;;
75689;SDS011;64303;53.118;9.044;2023-08-08T12:18:32;3.95;;;2.17;;
75689;SDS011;64303;53.118;9.044;2023-08-08T12:20:59;3.45;;;3.08;;
75689;SDS011;64303;53.118;9.044;2023-08-08T12:23:26;4.90;;;4.40;;
75689;SDS011;64303;53.118;9.044;2023-08-08T12:25:53;8.65;;;2.65;;
75689;SDS011;64303;53.118;9.044;2023-08-08T12:28:20;4.43;;;4.13;;
75689;SDS011;64303;53.118;9.044;2023-08-08T12:30:48;4.32;;;3.03;;
75689;SDS011;64303;53.118;9.044;2023-08-08T12:33:14;2.97;;;2.65;;
75689;SDS011;64303;53.118;9.044;2023-08-08T12:35:41;4.65;;;3.03;;
75689;SDS011;64303;53.118;9.044;2023-08-08T12:38:08;4.47;;;2.75;;
75689;SDS011;64303;53.118;9.044;2023-08-08T12:40:35;3.40;;;2.55;;
75689;SDS011;64303;53.118;9.044;2023-08-08T12:43:02;6.18;;;5.68;;
75689;SDS011;64303;53.118;9.044;2023-08-08T12:45:29;10.82;;;5.32;;
75689;SDS011;64303;53.118;9.044;2023-08-08T12:47:57;5.85;;;3.85;;
75689;SDS011;64303;53.118;9.044;2023-08-08T12:50:24;3.67;;;3.10;;
75689;SDS011;64303;53.118;9.044;2023-08-08T12:52:51;3.58;;;1.90;;
75689;SDS011;64303;53.118;9.044;2023-08-08T12:55:17;3.97;;;3.67;;
75689;SDS011;64303;53.118;9.044;2023-08-08T12:57:45;3.95;;;2.08;;
75689;SDS011;64303;53.118;9.044;2023-08-08T13:00:12;4.72;;;3.17;;
75689;SDS011;64303;53.118;9.044;2023-08-08T13:02:40;2.75;;;1.83;;
75689;SDS011;64303;53.118;9.044;2023-08-08T13:05:08;4.43;;;3.45;;
75689;SDS011;64303;53.118;9.044;2023-08-08T13:07:35;5.07;;;2.60;;
75689;SDS011;64303;53.118;9.044;2023-08-08T13:10:02;4.90;;;3.13;;
75689;SDS011;64303;53.118;9.044;2023-08-08T13:12:30;3.53;;;3.22;;
75689;SDS011;64303;53.118;9.044;2023-08-08T13:14:56;4.63;;;4.22;;
75689;SDS011;64303;53.118;9.044;2023-08-08T13:17:23;4.57;;;2.20;;
75689;SDS011;64303;53.118;9.044;2023-08-08T13:19:50;3.70;;;2.55;;
75689;SDS011;64303;53.118;9.044;2023-08-08T13:22:18;4.30;;;2.22;;
75689;SDS011;64303;53.118;9.044;2023-08-08T13:24:44;4.53;;;3.05;;
75689;SDS011;64303;53.118;9.044;2023-08-08T13:27:11;4.28;;;2.15;;
75689;SDS011;64303;53.118;9.044;2023-08-08T13:29:38;3.00;;;1.70;;
75689;SDS011;64303;53.118;9.044;2023-08-08T13:32:05;2.85;;;1.60;;
75689;SDS011;64303;53.118;9.044;2023-08-08T13:34:31;4.72;;;2.40;;
75689;SDS011;64303;53.118;9.044;2023-08-08T13:36:58;3.72;;;1.65;;
75689;SDS011;64303;53.118;9.044;2023-08-08T13:39:26;7.93;;;3.13;;
75689;SDS011;64303;53.118;9.044;2023-08-08T13:41:53;4.00;;;2.25;;
75689;SDS011;64303;53.118;9.044;2023-08-08T13:44:20;4.70;;;2.33;;
75689;SDS011;64303;53.118;9.044;2023-08-08T13:46:46;4.15;;;1.90;;
75689;SDS011;64303;53.118;9.044;2023-08-08T13:49:13;6.07;;;3.78;;
75689;SDS011;64303;53.118;9.044;2023-08-08T13:51:40;3.17;;;2.08;;
75689;SDS011;64303;53.118;9.044;2023-08-08T13:54:06;2.33;;;1.98;;
75689;SDS011;64303;53.118;9.044;2023-08-08T13:56:34;6.00;;;3.92;;
75689;SDS011;64303;53.118;9.044;2023-08-08T13:59:01;5.47;;;3.78;;
75689;SDS011;64303;53.118;9.044;2023-08-08T14:01:28;5.30;;;2.38;;
75689;SDS011;64303;53.118;9.044;2023-08-08T14:03:54;4.18;;;2.33;;
75689;SDS011;64303;53.118;9.044;2023-08-08T14:06:21;2.95;;;1.88;;
75689;SDS011;64303;53.118;9.044;2023-08-08T14:08:48;4.22;;;3.17;;
75689;SDS011;64303;53.118;9.044;2023-08-08T14:11:14;2.78;;;1.85;;
75689;SDS011;64303;53.118;9.044;2023-08-08T14:13:42;3.00;;;2.35;;
75689;SDS011;64303;53.118;9.044;2023-08-08T14:16:09;2.90;;;2.58;;
75689;SDS011;64303;53.118;9.044;2023-08-08T14:18:36;5.50;;;2.38;;
75689;SDS011;64303;53.118;9.044;2023-08-08T14:21:03;5.45;;;2.05;;
75689;SDS011;64303;53.118;9.044;2023-08-08T14:23:29;6.90;;;2.20;;
75689;SDS011;64303;53.118;9.044;2023-08-08T14:25:56;2.33;;;2.13;;
75689;SDS011;64303;53.118;9.044;2023-08-08T14:28:23;4.13;;;1.45;;
75689;SDS011;64303;53.118;9.044;2023-08-08T14:30:51;4.13;;;2.53;;
75689;SDS011;64303;53.118;9.044;2023-08-08T14:33:17;3.85;;;2.95;;
75689;SDS011;64303;53.118;9.044;2023-08-08T14:35:44;3.00;;;1.38;;
75689;SDS011;64303;53.118;9.044;2023-08-08T14:38:11;4.03;;;2.17;;
75689;SDS011;64303;53.118;9.044;2023-08-08T14:40:37;8.82;;;1.48;;
75689;SDS011;64303;53.118;9.044;2023-08-08T14:43:04;3.00;;;2.15;;
75689;SDS011;64303;53.118;9.044;2023-08-08T14:45:35;3.45;;;1.80;;
75689;SDS011;64303;53.118;9.044;2023-08-08T14:48:04;5.10;;;1.65;;
75689;SDS011;64303;53.118;9.044;2023-08-08T14:50:32;3.15;;;2.20;;
75689;SDS011;64303;53.118;9.044;2023-08-08T14:52:58;4.18;;;3.53;;
75689;SDS011;64303;53.118;9.044;2023-08-08T14:55:25;2.33;;;1.67;;
75689;SDS011;64303;53.118;9.044;2023-08-08T14:57:52;5.63;;;2.15;;
75689;SDS011;64303;53.118;9.044;2023-08-08T15:00:18;3.53;;;2.15;;
75689;SDS011;64303;53.118;9.044;2023-08-08T15:02:45;4.60;;;1.65;;